createdAt,value
2023-05-20T00:00:31.842Z,982.07
2023-05-20T00:01:31.992Z,982.10
2023-05-20T00:02:31.867Z,982.05
2023-05-20T00:03:31.798Z,982.05
2023-05-20T00:04:31.756Z,982.10
2023-05-20T00:05:31.721Z,982.08
2023-05-20T00:06:31.767Z,982.09
2023-05-20T00:07:31.807Z,982.01
2023-05-20T00:08:31.766Z,982.03
2023-05-20T00:09:31.650Z,981.96
2023-05-20T00:10:31.745Z,981.98
2023-05-20T00:11:31.885Z,981.96
2023-05-20T00:12:31.821Z,982.05
2023-05-20T00:13:31.605Z,981.97
2023-05-20T00:14:31.575Z,982.03
2023-05-20T00:15:31.726Z,981.99
2023-05-20T00:16:31.650Z,982.01
2023-05-20T00:17:31.716Z,981.98
2023-05-20T00:18:31.624Z,981.96
2023-05-20T00:19:31.605Z,981.98
2023-05-20T00:20:31.815Z,982.02
2023-05-20T00:21:31.588Z,982.00
2023-05-20T00:22:31.485Z,981.98
2023-05-20T00:23:31.665Z,981.88
2023-05-20T00:24:31.558Z,981.98
2023-05-20T00:25:31.879Z,981.99
2023-05-20T00:26:31.430Z,981.95
2023-05-20T00:27:31.400Z,981.90
2023-05-20T00:28:31.416Z,981.89
2023-05-20T00:29:31.452Z,981.89
2023-05-20T00:30:31.356Z,981.87
2023-05-20T00:31:31.393Z,981.82
2023-05-20T00:32:31.387Z,981.88
2023-05-20T00:33:31.305Z,981.90
2023-05-20T00:34:31.368Z,981.95
2023-05-20T00:35:31.340Z,981.92
2023-05-20T00:36:31.313Z,981.94
2023-05-20T00:37:31.287Z,981.86
2023-05-20T00:38:32.049Z,981.85
2023-05-20T00:39:31.352Z,981.90
2023-05-20T00:40:31.431Z,981.90
2023-05-20T00:41:31.243Z,981.85
2023-05-20T00:42:31.207Z,981.79
2023-05-20T00:43:31.259Z,981.87
2023-05-20T00:44:31.532Z,981.77
2023-05-20T00:45:31.328Z,981.74
2023-05-20T00:46:31.202Z,981.76
2023-05-20T00:47:31.379Z,981.74
2023-05-20T00:48:31.104Z,981.75
2023-05-20T00:49:31.224Z,981.76
2023-05-20T00:50:31.099Z,981.68
2023-05-20T00:51:31.074Z,981.72
2023-05-20T00:52:31.097Z,981.75
2023-05-20T00:53:31.085Z,981.73
2023-05-20T00:54:31.057Z,981.77
2023-05-20T00:55:31.403Z,981.75
2023-05-20T00:56:31.093Z,981.70
2023-05-20T00:57:31.252Z,981.73
2023-05-20T00:58:31.120Z,981.72
2023-05-20T00:59:30.993Z,981.65
2023-05-20T01:00:31.209Z,981.72
2023-05-20T01:01:30.979Z,981.66
2023-05-20T01:02:31.013Z,981.65
2023-05-20T01:03:31.444Z,981.56
2023-05-20T01:04:30.928Z,981.62
2023-05-20T01:05:31.034Z,981.61
2023-05-20T01:06:30.984Z,981.58
2023-05-20T01:07:30.847Z,981.62
2023-05-20T01:08:30.854Z,981.65
2023-05-20T01:09:30.933Z,981.67
2023-05-20T01:10:31.207Z,981.70
2023-05-20T01:11:31.008Z,981.63
2023-05-20T01:12:30.846Z,981.60
2023-05-20T01:13:30.794Z,981.59
2023-05-20T01:14:30.762Z,981.61
2023-05-20T01:15:30.803Z,981.64
2023-05-20T01:16:30.946Z,981.66
2023-05-20T01:17:30.811Z,981.61
2023-05-20T01:18:30.788Z,981.63
2023-05-20T01:19:30.688Z,981.65
2023-05-20T01:20:30.830Z,981.65
2023-05-20T01:21:31.019Z,981.68
2023-05-20T01:22:30.899Z,981.71
2023-05-20T01:23:30.753Z,981.62
2023-05-20T01:24:30.821Z,981.59
2023-05-20T01:25:30.994Z,981.67
2023-05-20T01:26:30.872Z,981.73
2023-05-20T01:27:30.624Z,981.64
2023-05-20T01:28:30.768Z,981.74
2023-05-20T01:29:30.632Z,981.62
2023-05-20T01:30:30.578Z,981.61
2023-05-20T01:31:30.762Z,981.70
2023-05-20T01:32:30.813Z,981.67
2023-05-20T01:33:30.633Z,981.62
2023-05-20T01:34:30.867Z,981.58
2023-05-20T01:35:30.710Z,981.56
2023-05-20T01:36:30.608Z,981.58
2023-05-20T01:37:30.638Z,981.58
2023-05-20T01:38:30.452Z,981.57
2023-05-20T01:39:30.705Z,981.61
2023-05-20T01:40:30.472Z,981.58
2023-05-20T01:41:30.704Z,981.59
2023-05-20T01:42:30.463Z,981.63
2023-05-20T01:43:30.620Z,981.65
2023-05-20T01:44:30.444Z,981.65
2023-05-20T01:45:30.364Z,981.61
2023-05-20T01:46:30.472Z,981.75
2023-05-20T01:47:30.434Z,981.65
2023-05-20T01:48:30.557Z,981.68
2023-05-20T01:49:30.326Z,981.71
2023-05-20T01:50:30.296Z,981.70
2023-05-20T01:51:30.392Z,981.79
2023-05-20T01:52:30.270Z,981.72
2023-05-20T01:53:30.398Z,981.72
2023-05-20T01:54:30.271Z,981.70
2023-05-20T01:55:30.308Z,981.71
2023-05-20T01:56:30.209Z,981.73
2023-05-20T01:57:30.327Z,981.69
2023-05-20T01:58:30.554Z,981.68
2023-05-20T01:59:30.208Z,981.71
2023-05-20T02:00:30.288Z,981.71
2023-05-20T02:01:30.482Z,981.66
2023-05-20T02:02:30.312Z,981.68
2023-05-20T02:03:30.332Z,981.68
2023-05-20T02:04:30.276Z,981.67
2023-05-20T02:05:30.353Z,981.73
2023-05-20T02:06:30.143Z,981.65
2023-05-20T02:07:30.055Z,981.68
2023-05-20T02:08:30.148Z,981.63
2023-05-20T02:09:30.421Z,981.70
2023-05-20T02:10:30.182Z,981.76
2023-05-20T02:11:30.001Z,981.72
2023-05-20T02:12:30.184Z,981.73
2023-05-20T02:13:29.971Z,981.69
2023-05-20T02:14:29.965Z,981.69
2023-05-20T02:15:30.124Z,981.66
2023-05-20T02:16:30.023Z,981.64
2023-05-20T02:17:30.040Z,981.63
2023-05-20T02:18:29.929Z,981.59
2023-05-20T02:19:30.260Z,981.59
2023-05-20T02:20:30.167Z,981.69
2023-05-20T02:21:30.062Z,981.72
2023-05-20T02:22:29.877Z,981.65
2023-05-20T02:23:30.081Z,981.62
2023-05-20T02:24:29.852Z,981.66
2023-05-20T02:25:30.084Z,981.69
2023-05-20T02:26:29.909Z,981.68
2023-05-20T02:27:29.845Z,981.63
2023-05-20T02:28:29.921Z,981.63
2023-05-20T02:29:29.995Z,981.62
2023-05-20T02:30:29.848Z,981.58
2023-05-20T02:31:29.943Z,981.56
2023-05-20T02:32:29.811Z,981.54
2023-05-20T02:33:29.825Z,981.55
2023-05-20T02:34:29.866Z,981.58
2023-05-20T02:35:29.969Z,981.55
2023-05-20T02:36:29.748Z,981.55
2023-05-20T02:37:29.751Z,981.49
2023-05-20T02:38:29.886Z,981.56
2023-05-20T02:39:29.655Z,981.57
2023-05-20T02:40:29.818Z,981.51
2023-05-20T02:41:29.673Z,981.53
2023-05-20T02:42:29.921Z,981.57
2023-05-20T02:43:29.673Z,981.62
2023-05-20T02:44:29.826Z,981.58
2023-05-20T02:45:29.631Z,981.60
2023-05-20T02:46:29.879Z,981.61
2023-05-20T02:47:29.586Z,981.61
2023-05-20T02:48:29.954Z,981.64
2023-05-20T02:49:29.524Z,981.58
2023-05-20T02:50:29.501Z,981.53
2023-05-20T02:51:29.665Z,981.66
2023-05-20T02:52:29.535Z,981.63
2023-05-20T02:53:29.562Z,981.59
2023-05-20T02:54:29.553Z,981.53
2023-05-20T02:55:29.731Z,981.61
2023-05-20T02:56:29.566Z,981.57
2023-05-20T02:57:29.456Z,981.61
2023-05-20T02:58:29.587Z,981.61
2023-05-20T02:59:29.484Z,981.55
2023-05-20T03:00:29.473Z,981.57
2023-05-20T03:01:29.364Z,981.55
2023-05-20T03:02:29.528Z,981.64
2023-05-20T03:03:29.337Z,981.56
2023-05-20T03:04:29.651Z,981.50
2023-05-20T03:05:29.332Z,981.46
2023-05-20T03:06:29.575Z,981.55
2023-05-20T03:07:29.436Z,981.60
2023-05-20T03:08:29.278Z,981.62
2023-05-20T03:09:29.432Z,981.63
2023-05-20T03:10:29.602Z,981.64
2023-05-20T03:11:29.432Z,981.64
2023-05-20T03:12:29.169Z,981.55
2023-05-20T03:13:29.368Z,981.63
2023-05-20T03:14:29.270Z,981.77
2023-05-20T03:15:29.212Z,981.74
2023-05-20T03:16:29.401Z,981.70
2023-05-20T03:17:29.434Z,981.71
2023-05-20T03:18:29.329Z,981.82
2023-05-20T03:19:29.413Z,981.68
2023-05-20T03:20:29.344Z,981.65
2023-05-20T03:21:29.057Z,981.66
2023-05-20T03:22:29.168Z,981.63
2023-05-20T03:23:29.068Z,981.62
2023-05-20T03:24:29.177Z,981.60
2023-05-20T03:25:29.033Z,981.60
2023-05-20T03:26:29.309Z,981.64
2023-05-20T03:27:29.046Z,981.75
2023-05-20T03:28:29.057Z,981.68
2023-05-20T03:29:29.053Z,981.68
2023-05-20T03:30:28.965Z,981.63
2023-05-20T03:31:29.190Z,981.61
2023-05-20T03:32:29.229Z,981.59
2023-05-20T03:33:28.980Z,981.62
2023-05-20T03:34:28.957Z,981.53
2023-05-20T03:35:29.013Z,981.59
2023-05-20T03:36:28.896Z,981.64
2023-05-20T03:37:29.160Z,981.62
2023-05-20T03:38:28.924Z,981.59
2023-05-20T03:39:28.833Z,981.71
2023-05-20T03:40:28.853Z,981.58
2023-05-20T03:41:29.050Z,981.64
2023-05-20T03:42:28.846Z,981.66
2023-05-20T03:43:29.106Z,981.65
2023-05-20T03:44:28.955Z,981.68
2023-05-20T03:45:28.774Z,981.62
2023-05-20T03:46:28.904Z,981.65
2023-05-20T03:47:28.839Z,981.68
2023-05-20T03:48:28.784Z,981.66
2023-05-20T03:49:28.688Z,981.60
2023-05-20T03:50:28.723Z,981.63
2023-05-20T03:51:28.809Z,981.55
2023-05-20T03:52:28.637Z,981.65
2023-05-20T03:53:28.903Z,981.67
2023-05-20T03:54:28.897Z,981.71
2023-05-20T03:55:28.686Z,981.67
2023-05-20T03:56:28.617Z,981.65
2023-05-20T03:57:28.675Z,981.64
2023-05-20T03:58:28.699Z,981.65
2023-05-20T03:59:28.683Z,981.74
2023-05-20T04:00:28.535Z,981.73
2023-05-20T04:01:28.801Z,981.71
2023-05-20T04:02:28.665Z,981.74
2023-05-20T04:03:28.595Z,981.75
2023-05-20T04:04:28.553Z,981.74
2023-05-20T04:05:28.497Z,981.73
2023-05-20T04:06:28.643Z,981.79
2023-05-20T04:07:28.480Z,981.81
2023-05-20T04:08:28.631Z,981.72
2023-05-20T04:09:28.469Z,981.73
2023-05-20T04:10:28.674Z,981.70
2023-05-20T04:11:28.383Z,981.70
2023-05-20T04:12:28.362Z,981.72
2023-05-20T04:13:28.501Z,981.73
2023-05-20T04:14:28.359Z,981.69
2023-05-20T04:15:28.363Z,981.83
2023-05-20T04:16:28.562Z,981.81
2023-05-20T04:17:28.444Z,981.76
2023-05-20T04:18:28.625Z,981.83
2023-05-20T04:19:28.667Z,981.73
2023-05-20T04:20:28.302Z,981.77
2023-05-20T04:21:28.244Z,981.72
2023-05-20T04:22:28.307Z,981.74
2023-05-20T04:23:28.480Z,981.84
2023-05-20T04:24:28.249Z,981.81
2023-05-20T04:25:28.441Z,981.78
2023-05-20T04:26:28.389Z,981.89
2023-05-20T04:27:28.218Z,981.83
2023-05-20T04:28:28.405Z,981.78
2023-05-20T04:29:28.111Z,981.81
2023-05-20T04:30:28.149Z,981.80
2023-05-20T04:31:28.211Z,981.86
2023-05-20T04:32:28.383Z,981.87
2023-05-20T04:33:28.342Z,981.83
2023-05-20T04:34:28.091Z,981.86
2023-05-20T04:35:28.221Z,981.92
2023-05-20T04:36:28.093Z,981.80
2023-05-20T04:37:28.080Z,981.82
2023-05-20T04:38:29.498Z,981.87
2023-05-20T04:39:28.114Z,981.89
2023-05-20T04:40:27.980Z,981.85
2023-05-20T04:41:28.065Z,981.89
2023-05-20T04:42:27.984Z,981.81
2023-05-20T04:43:28.081Z,981.77
2023-05-20T04:44:27.969Z,981.80
2023-05-20T04:45:27.906Z,981.87
2023-05-20T04:46:28.026Z,981.90
2023-05-20T04:47:27.926Z,981.89
2023-05-20T04:48:27.967Z,981.83
2023-05-20T04:49:27.860Z,981.93
2023-05-20T04:50:27.846Z,981.88
2023-05-20T04:51:27.835Z,981.85
2023-05-20T04:52:27.811Z,981.85
2023-05-20T04:53:27.802Z,981.89
2023-05-20T04:54:27.890Z,981.88
2023-05-20T04:55:27.792Z,981.80
2023-05-20T04:56:27.802Z,981.76
2023-05-20T04:57:27.763Z,981.81
2023-05-20T04:58:27.751Z,981.85
2023-05-20T04:59:27.742Z,981.83
2023-05-20T05:00:27.818Z,981.78
2023-05-20T05:01:27.751Z,981.75
2023-05-20T05:02:27.715Z,981.83
2023-05-20T05:03:28.204Z,981.77
2023-05-20T05:04:27.739Z,981.78
2023-05-20T05:05:27.785Z,981.70
2023-05-20T05:06:27.604Z,981.72
2023-05-20T05:07:27.625Z,981.78
2023-05-20T05:08:27.618Z,981.84
2023-05-20T05:09:27.607Z,981.89
2023-05-20T05:10:27.568Z,981.89
2023-05-20T05:11:27.644Z,981.86
2023-05-20T05:12:27.586Z,981.82
2023-05-20T05:13:27.567Z,981.84
2023-05-20T05:14:27.672Z,981.86
2023-05-20T05:15:28.610Z,981.98
2023-05-20T05:16:27.675Z,981.89
2023-05-20T05:17:27.488Z,981.86
2023-05-20T05:18:27.599Z,981.80
2023-05-20T05:19:27.483Z,981.84
2023-05-20T05:20:27.451Z,981.90
2023-05-20T05:21:27.433Z,981.89
2023-05-20T05:22:27.513Z,981.85
2023-05-20T05:23:27.425Z,981.87
2023-05-20T05:24:27.387Z,981.86
2023-05-20T05:25:27.425Z,981.86
2023-05-20T05:26:27.406Z,981.92
2023-05-20T05:27:27.439Z,981.86
2023-05-20T05:28:27.325Z,981.92
2023-05-20T05:29:27.299Z,981.84
2023-05-20T05:30:27.339Z,981.88
2023-05-20T05:31:27.331Z,981.91
2023-05-20T05:32:27.675Z,981.79
2023-05-20T05:33:27.370Z,981.73
2023-05-20T05:34:27.378Z,981.82
2023-05-20T05:35:27.333Z,981.79
2023-05-20T05:36:27.302Z,981.80
2023-05-20T05:37:27.314Z,981.77
2023-05-20T05:38:27.250Z,981.76
2023-05-20T05:39:27.181Z,981.80
2023-05-20T05:40:27.191Z,981.83
2023-05-20T05:41:27.167Z,981.79
2023-05-20T05:42:27.170Z,981.73
2023-05-20T05:43:27.310Z,981.77
2023-05-20T05:44:27.123Z,981.71
2023-05-20T05:45:27.209Z,981.73
2023-05-20T05:46:27.173Z,981.71
2023-05-20T05:47:27.126Z,981.61
2023-05-20T05:48:27.382Z,981.59
2023-05-20T05:49:27.073Z,981.57
2023-05-20T05:50:27.114Z,981.63
2023-05-20T05:51:27.057Z,981.66
2023-05-20T05:52:27.057Z,981.61
2023-05-20T05:53:27.128Z,981.68
2023-05-20T05:54:26.993Z,981.67
2023-05-20T05:55:27.115Z,981.61
2023-05-20T05:56:26.990Z,981.69
2023-05-20T05:57:27.085Z,981.67
2023-05-20T05:58:27.057Z,981.66
2023-05-20T05:59:26.913Z,981.73
2023-05-20T06:00:26.921Z,981.64
2023-05-20T06:01:27.079Z,981.61
2023-05-20T06:02:27.040Z,981.67
2023-05-20T06:03:27.102Z,981.68
2023-05-20T06:04:26.956Z,981.71
2023-05-20T06:05:29.132Z,981.71
2023-05-20T06:06:27.058Z,981.65
2023-05-20T06:07:26.796Z,981.63
2023-05-20T06:08:26.883Z,981.66
2023-05-20T06:09:26.775Z,981.60
2023-05-20T06:10:27.063Z,981.66
2023-05-20T06:11:26.775Z,981.62
2023-05-20T06:12:27.011Z,981.65
2023-05-20T06:13:26.847Z,981.64
2023-05-20T06:14:26.708Z,981.68
2023-05-20T06:15:26.767Z,981.72
2023-05-20T06:16:26.705Z,981.78
2023-05-20T06:17:26.905Z,981.75
2023-05-20T06:18:26.749Z,981.84
2023-05-20T06:19:26.828Z,981.79
2023-05-20T06:20:26.708Z,981.75
2023-05-20T06:21:26.789Z,981.75
2023-05-20T06:22:26.593Z,981.70
2023-05-20T06:23:26.580Z,981.73
2023-05-20T06:24:26.629Z,981.68
2023-05-20T06:25:26.552Z,981.75
2023-05-20T06:26:26.609Z,981.76
2023-05-20T06:27:26.767Z,981.71
2023-05-20T06:28:26.515Z,981.71
2023-05-20T06:29:26.551Z,981.65
2023-05-20T06:30:26.743Z,981.66
2023-05-20T06:31:26.640Z,981.71
2023-05-20T06:32:26.527Z,981.68
2023-05-20T06:33:26.474Z,981.63
2023-05-20T06:34:26.463Z,981.65
2023-05-20T06:35:26.591Z,981.68
2023-05-20T06:36:26.429Z,981.68
2023-05-20T06:37:26.470Z,981.66
2023-05-20T06:38:26.383Z,981.66
2023-05-20T06:39:26.385Z,981.66
2023-05-20T06:40:26.533Z,981.61
2023-05-20T06:41:26.560Z,981.68
2023-05-20T06:42:26.597Z,981.68
2023-05-20T06:43:26.487Z,981.66
2023-05-20T06:44:26.406Z,981.62
2023-05-20T06:45:26.312Z,981.67
2023-05-20T06:46:26.418Z,981.70
2023-05-20T06:47:26.320Z,981.61
2023-05-20T06:48:26.309Z,981.58
2023-05-20T06:49:26.287Z,981.57
2023-05-20T06:50:26.261Z,981.56
2023-05-20T06:51:26.397Z,981.57
2023-05-20T06:52:26.387Z,981.54
2023-05-20T06:53:26.480Z,981.58
2023-05-20T06:54:26.310Z,981.57
2023-05-20T06:55:26.208Z,981.49
2023-05-20T06:56:26.249Z,981.53
2023-05-20T06:57:26.127Z,981.46
2023-05-20T06:58:26.157Z,981.52
2023-05-20T06:59:26.180Z,981.48
2023-05-20T07:00:26.192Z,981.51
2023-05-20T07:01:26.157Z,981.45
2023-05-20T07:02:26.465Z,981.46
2023-05-20T07:03:26.193Z,981.51
2023-05-20T07:04:26.306Z,981.56
2023-05-20T07:05:26.238Z,981.49
2023-05-20T07:06:26.087Z,981.46
2023-05-20T07:07:26.145Z,981.50
2023-05-20T07:08:26.020Z,981.46
2023-05-20T07:09:26.202Z,981.54
2023-05-20T07:10:26.051Z,981.53
2023-05-20T07:11:25.950Z,981.54
2023-05-20T07:12:26.086Z,981.55
2023-05-20T07:13:26.306Z,981.51
2023-05-20T07:14:25.996Z,981.48
2023-05-20T07:15:25.921Z,981.51
2023-05-20T07:16:26.050Z,981.43
2023-05-20T07:17:25.938Z,981.34
2023-05-20T07:18:26.086Z,981.42
2023-05-20T07:19:25.937Z,981.47
2023-05-20T07:20:25.766Z,981.42
2023-05-20T07:21:25.836Z,981.44
2023-05-20T07:22:25.794Z,981.43
2023-05-20T07:23:25.922Z,981.59
2023-05-20T07:24:25.989Z,981.47
2023-05-20T07:25:25.884Z,981.45
2023-05-20T07:26:26.008Z,981.34
2023-05-20T07:27:25.936Z,981.30
2023-05-20T07:28:25.801Z,981.36
2023-05-20T07:29:25.833Z,981.32
2023-05-20T07:30:25.674Z,981.27
2023-05-20T07:31:25.855Z,981.26
2023-05-20T07:32:25.776Z,981.34
2023-05-20T07:33:25.823Z,981.37
2023-05-20T07:34:25.654Z,981.27
2023-05-20T07:35:25.638Z,981.21
2023-05-20T07:36:25.587Z,981.21
2023-05-20T07:37:25.731Z,981.28
2023-05-20T07:38:25.565Z,981.23
2023-05-20T07:39:25.911Z,981.23
2023-05-20T07:40:25.570Z,981.16
2023-05-20T07:41:25.831Z,981.22
2023-05-20T07:42:25.559Z,981.20
2023-05-20T07:43:25.510Z,981.21
2023-05-20T07:44:25.595Z,981.23
2023-05-20T07:45:25.514Z,981.18
2023-05-20T07:46:25.555Z,981.12
2023-05-20T07:47:25.516Z,981.15
2023-05-20T07:48:25.425Z,981.23
2023-05-20T07:49:25.652Z,981.14
2023-05-20T07:50:25.466Z,981.17
2023-05-20T07:51:25.409Z,981.24
2023-05-20T07:52:25.392Z,981.25
2023-05-20T07:53:25.512Z,981.23
2023-05-20T07:54:25.398Z,981.22
2023-05-20T07:55:25.429Z,981.25
2023-05-20T07:56:25.328Z,981.23
2023-05-20T07:57:25.310Z,981.30
2023-05-20T07:58:25.360Z,981.30
2023-05-20T07:59:25.508Z,981.22
2023-05-20T08:00:25.434Z,981.20
2023-05-20T08:01:25.634Z,981.22
2023-05-20T08:02:25.583Z,981.25
2023-05-20T08:03:25.355Z,981.29
2023-05-20T08:04:25.403Z,981.20
2023-05-20T08:05:25.264Z,981.23
2023-05-20T08:06:27.293Z,981.16
2023-05-20T08:07:25.218Z,981.17
2023-05-20T08:08:25.238Z,981.13
2023-05-20T08:09:25.280Z,981.18
2023-05-20T08:10:25.144Z,981.16
2023-05-20T08:11:25.180Z,981.13
2023-05-20T08:12:25.342Z,981.16
2023-05-20T08:13:25.230Z,981.20
2023-05-20T08:14:25.084Z,981.13
2023-05-20T08:15:25.169Z,981.10
2023-05-20T08:16:25.110Z,981.04
2023-05-20T08:17:25.200Z,981.06
2023-05-20T08:18:25.143Z,980.99
2023-05-20T08:19:25.111Z,981.07
2023-05-20T08:20:25.108Z,981.01
2023-05-20T08:21:25.197Z,981.12
2023-05-20T08:22:25.006Z,980.90
2023-05-20T08:23:25.262Z,980.91
2023-05-20T08:24:25.021Z,980.96
2023-05-20T08:25:25.249Z,980.92
2023-05-20T08:26:25.061Z,980.86
2023-05-20T08:27:24.920Z,980.95
2023-05-20T08:28:25.131Z,980.87
2023-05-20T08:29:25.199Z,980.91
2023-05-20T08:30:24.850Z,980.82
2023-05-20T08:31:25.031Z,980.93
2023-05-20T08:32:25.064Z,980.88
2023-05-20T08:33:24.983Z,980.89
2023-05-20T08:34:24.825Z,980.83
2023-05-20T08:35:25.005Z,980.88
2023-05-20T08:36:24.822Z,980.99
2023-05-20T08:37:24.851Z,980.90
2023-05-20T08:38:25.121Z,980.84
2023-05-20T08:39:24.959Z,981.00
2023-05-20T08:40:25.043Z,980.97
2023-05-20T08:41:24.858Z,980.88
2023-05-20T08:42:24.763Z,980.93
2023-05-20T08:43:24.972Z,980.93
2023-05-20T08:44:24.705Z,981.00
2023-05-20T08:45:24.860Z,980.92
2023-05-20T08:46:24.806Z,980.87
2023-05-20T08:47:24.890Z,980.87
2023-05-20T08:48:24.804Z,980.84
2023-05-20T08:49:24.874Z,980.86
2023-05-20T08:50:24.697Z,980.96
2023-05-20T08:51:24.889Z,980.91
2023-05-20T08:52:24.714Z,980.98
2023-05-20T08:53:24.652Z,980.78
2023-05-20T08:54:24.720Z,980.73
2023-05-20T08:55:24.544Z,980.79
2023-05-20T08:56:24.707Z,980.82
2023-05-20T08:57:24.544Z,980.81
2023-05-20T08:58:24.786Z,980.80
2023-05-20T08:59:24.649Z,980.77
2023-05-20T09:00:24.492Z,980.78
2023-05-20T09:01:24.560Z,980.80
2023-05-20T09:02:24.732Z,980.78
2023-05-20T09:03:24.633Z,980.83
2023-05-20T09:04:24.457Z,980.78
2023-05-20T09:05:24.555Z,980.81
2023-05-20T09:06:24.368Z,980.87
2023-05-20T09:07:24.388Z,980.90
2023-05-20T09:08:24.482Z,980.88
2023-05-20T09:09:24.328Z,980.89
2023-05-20T09:10:24.368Z,980.89
2023-05-20T09:11:24.352Z,980.82
2023-05-20T09:12:24.376Z,980.89
2023-05-20T09:13:24.652Z,980.90
2023-05-20T09:14:24.354Z,980.86
2023-05-20T09:15:24.522Z,980.84
2023-05-20T09:16:24.519Z,980.78
2023-05-20T09:17:24.628Z,980.83
2023-05-20T09:18:24.524Z,980.83
2023-05-20T09:19:24.785Z,980.78
2023-05-20T09:20:24.382Z,980.76
2023-05-20T09:21:24.274Z,980.78
2023-05-20T09:22:25.366Z,980.80
2023-05-20T09:23:24.319Z,980.73
2023-05-20T09:24:24.373Z,980.82
2023-05-20T09:25:24.220Z,980.81
2023-05-20T09:26:24.384Z,980.74
2023-05-20T09:27:24.313Z,980.81
2023-05-20T09:28:24.495Z,980.83
2023-05-20T09:29:24.308Z,980.78
2023-05-20T09:30:24.064Z,980.77
2023-05-20T09:31:24.252Z,980.79
2023-05-20T09:32:24.067Z,980.78
2023-05-20T09:33:24.197Z,980.77
2023-05-20T09:34:24.158Z,980.70
2023-05-20T09:35:24.011Z,980.72
2023-05-20T09:36:24.065Z,980.72
2023-05-20T09:37:24.220Z,980.70
2023-05-20T09:38:23.945Z,980.68
2023-05-20T09:39:24.059Z,980.77
2023-05-20T09:40:24.058Z,980.68
2023-05-20T09:41:23.931Z,980.78
2023-05-20T09:42:24.066Z,980.85
2023-05-20T09:43:23.911Z,980.78
2023-05-20T09:44:24.159Z,980.76
2023-05-20T09:45:23.903Z,980.85
2023-05-20T09:46:24.086Z,980.89
2023-05-20T09:47:23.806Z,980.70
2023-05-20T09:48:23.824Z,980.76
2023-05-20T09:49:23.889Z,980.69
2023-05-20T09:50:23.787Z,980.71
2023-05-20T09:51:23.764Z,980.72
2023-05-20T09:52:23.787Z,980.81
2023-05-20T09:53:23.763Z,980.70
2023-05-20T09:54:23.820Z,980.81
2023-05-20T09:55:23.840Z,980.82
2023-05-20T09:56:23.712Z,980.83
2023-05-20T09:57:23.728Z,980.79
2023-05-20T09:58:23.696Z,980.77
2023-05-20T09:59:23.759Z,980.85
2023-05-20T10:00:23.645Z,980.78
2023-05-20T10:01:23.699Z,980.69
2023-05-20T10:02:23.688Z,980.74
2023-05-20T10:03:23.666Z,980.69
2023-05-20T10:04:23.703Z,980.75
2023-05-20T10:05:23.630Z,980.77
2023-05-20T10:06:23.673Z,980.74
2023-05-20T10:07:37.967Z,980.73
2023-05-20T10:08:23.553Z,980.59
2023-05-20T10:09:23.532Z,980.63
2023-05-20T10:10:23.491Z,980.66
2023-05-20T10:11:23.665Z,980.59
2023-05-20T10:12:23.498Z,980.58
2023-05-20T10:13:23.595Z,980.66
2023-05-20T10:14:23.472Z,980.69
2023-05-20T10:15:23.504Z,980.58
2023-05-20T10:16:23.536Z,980.58
2023-05-20T10:17:23.851Z,980.61
2023-05-20T10:18:23.432Z,980.65
2023-05-20T10:19:23.601Z,980.59
2023-05-20T10:20:23.512Z,980.65
2023-05-20T10:21:23.575Z,980.66
2023-05-20T10:22:23.544Z,980.70
2023-05-20T10:23:23.591Z,980.67
2023-05-20T10:24:23.411Z,980.68
2023-05-20T10:25:23.588Z,980.70
2023-05-20T10:26:23.414Z,980.84
2023-05-20T10:27:23.405Z,980.67
2023-05-20T10:28:23.425Z,980.77
2023-05-20T10:29:23.274Z,980.64
2023-05-20T10:30:23.422Z,980.66
2023-05-20T10:31:23.276Z,980.70
2023-05-20T10:32:23.558Z,980.61
2023-05-20T10:33:23.406Z,980.75
2023-05-20T10:34:23.224Z,980.75
2023-05-20T10:35:23.270Z,980.57
2023-05-20T10:36:23.238Z,980.69
2023-05-20T10:37:23.363Z,980.63
2023-05-20T10:38:23.188Z,980.61
2023-05-20T10:39:23.330Z,980.57
2023-05-20T10:40:23.140Z,980.66
2023-05-20T10:41:23.265Z,980.54
2023-05-20T10:42:23.166Z,980.71
2023-05-20T10:43:24.084Z,980.59
2023-05-20T10:44:23.212Z,980.64
2023-05-20T10:45:23.065Z,980.65
2023-05-20T10:46:33.978Z,980.52
2023-05-20T10:47:25.986Z,980.54
2023-05-20T10:48:23.121Z,980.62
2023-05-20T10:49:27.264Z,980.55
2023-05-20T10:50:22.997Z,980.47
2023-05-20T10:51:22.968Z,980.49
2023-05-20T10:52:23.100Z,980.47
2023-05-20T10:53:32.801Z,980.50
2023-05-20T10:54:23.011Z,980.40
2023-05-20T10:55:22.961Z,980.53
2023-05-20T10:56:23.112Z,980.51
2023-05-20T10:57:22.936Z,980.66
2023-05-20T10:58:23.037Z,980.46
2023-05-20T10:59:23.007Z,980.53
2023-05-20T11:00:22.879Z,980.53
2023-05-20T11:01:22.913Z,980.55
2023-05-20T11:02:22.859Z,980.46
2023-05-20T11:03:23.331Z,980.43
2023-05-20T11:04:22.774Z,980.41
2023-05-20T11:05:22.799Z,980.41
2023-05-20T11:06:22.837Z,980.36
2023-05-20T11:07:22.962Z,980.38
2023-05-20T11:08:29.068Z,980.35
2023-05-20T11:09:22.979Z,980.41
2023-05-20T11:10:22.806Z,980.37
2023-05-20T11:11:22.722Z,980.41
2023-05-20T11:12:22.776Z,980.45
2023-05-20T11:13:22.806Z,980.51
2023-05-20T11:14:22.804Z,980.34
2023-05-20T11:15:22.950Z,980.40
2023-05-20T11:16:22.846Z,980.40
2023-05-20T11:17:22.722Z,980.46
2023-05-20T11:18:22.829Z,980.36
2023-05-20T11:19:22.880Z,980.30
2023-05-20T11:20:22.569Z,980.36
2023-05-20T11:21:22.619Z,980.42
2023-05-20T11:22:22.536Z,980.43
2023-05-20T11:23:22.619Z,980.38
2023-05-20T11:24:22.672Z,980.43
2023-05-20T11:25:22.615Z,980.38
2023-05-20T11:26:22.533Z,980.52
2023-05-20T11:27:22.469Z,980.49
2023-05-20T11:28:22.465Z,980.43
2023-05-20T11:29:22.745Z,980.39
2023-05-20T11:30:22.473Z,980.43
2023-05-20T11:31:22.512Z,980.39
2023-05-20T11:32:22.486Z,980.38
2023-05-20T11:33:22.514Z,980.45
2023-05-20T11:34:25.041Z,980.41
2023-05-20T11:35:22.494Z,980.35
2023-05-20T11:36:28.069Z,980.49
2023-05-20T11:37:22.405Z,980.40
2023-05-20T11:38:22.510Z,980.37
2023-05-20T11:39:22.352Z,980.31
2023-05-20T11:40:22.408Z,980.22
2023-05-20T11:41:22.308Z,980.35
2023-05-20T11:42:22.305Z,980.23
2023-05-20T11:43:22.284Z,980.28
2023-05-20T11:44:22.274Z,980.30
2023-05-20T11:45:22.400Z,980.28
2023-05-20T11:46:22.307Z,980.36
2023-05-20T11:47:22.739Z,980.30
2023-05-20T11:48:22.204Z,980.31
2023-05-20T11:49:22.170Z,980.25
2023-05-20T11:50:22.177Z,980.35
2023-05-20T11:51:22.252Z,980.37
2023-05-20T11:52:22.176Z,980.30
2023-05-20T11:53:22.391Z,980.34
2023-05-20T11:54:22.133Z,980.21
2023-05-20T11:55:22.312Z,980.34
2023-05-20T11:56:22.239Z,980.30
2023-05-20T11:57:22.336Z,980.19
2023-05-20T11:58:22.060Z,980.23
2023-05-20T11:59:22.319Z,980.18
2023-05-20T12:00:22.078Z,980.31
2023-05-20T12:01:23.367Z,980.29
2023-05-20T12:02:22.138Z,980.26
2023-05-20T12:03:22.388Z,980.18
2023-05-20T12:04:22.085Z,980.26
2023-05-20T12:05:21.973Z,980.19
2023-05-20T12:06:22.083Z,980.18
2023-05-20T12:07:21.987Z,980.18
2023-05-20T12:08:21.955Z,980.15
2023-05-20T12:09:22.095Z,980.13
2023-05-20T12:10:22.144Z,980.11
2023-05-20T12:11:21.890Z,980.19
2023-05-20T12:12:21.986Z,980.20
2023-05-20T12:13:21.855Z,980.17
2023-05-20T12:14:21.859Z,980.07
2023-05-20T12:15:21.979Z,980.10
2023-05-20T12:16:21.861Z,980.10
2023-05-20T12:17:21.893Z,980.07
2023-05-20T12:18:21.923Z,980.21
2023-05-20T12:19:21.854Z,980.13
2023-05-20T12:20:21.830Z,980.11
2023-05-20T12:21:21.763Z,980.12
2023-05-20T12:22:21.953Z,980.10
2023-05-20T12:23:21.779Z,980.14
2023-05-20T12:24:21.824Z,980.14
2023-05-20T12:25:21.770Z,980.16
2023-05-20T12:26:21.684Z,980.12
2023-05-20T12:27:21.772Z,980.12
2023-05-20T12:28:21.683Z,980.08